Ievoli Speed — IBCI — position and weather

sailwx.info

Track history (hours):
 
Tides and Currents Weather Stations Pressure Air Temp Water Temp Dewpoint Dewpoint Depression Visibility Wind Speed Wind Dir Waves Ship Positions

Ievoli Speed

Last reported at 2018-Jun-22 01:30 UTC. Time now 2018-Jun-22 01:55 UTC.
Position N 37°27' E 002°41'.

Length 110 m; draft 5.7 m.

Type: Ship. MMSI: 247351000.

Date/timePositionNaut miles runAvg speedWind from/ knotsBaromVisibWave heightAir tempDewpointWater temp
2018-Jun-22 01:30N 37°27' E 002°41'612.4
2018-Jun-22 01:00N 37°29' E 002°49'612.5
2018-Jun-22 00:30N 37°30' E 002°56'812.4
2018-Jun-21 23:54N 37°32' E 003°06'1512.4
2018-Jun-21 22:43N 37°36' E 003°23'312.5
2018-Jun-21 22:29N 37°37' E 003°27'  
2018-Jun-15 10:41N 37°26' E 015°23'212.4
2018-Jun-15 10:30N 37°28' E 015°24'612.3
2018-Jun-15 09:59N 37°35' E 015°26'712.5
2018-Jun-15 09:27N 37°41' E 015°27'612.9
2018-Jun-15 09:00N 37°47' E 015°29'712.7
2018-Jun-15 08:28N 37°54' E 015°31'613.3
2018-Jun-15 08:00N 37°60' E 015°32'713.0
2018-Jun-15 07:30N 38°06' E 015°34'611.8
2018-Jun-15 07:00N 38°12' E 015°36'710.6
2018-Jun-15 06:23N 38°17' E 015°41'513.1
2018-Jun-15 06:00N 38°21' E 015°37'612.7
2018-Jun-15 05:30N 38°25' E 015°31'612.7
2018-Jun-15 05:00N 38°30' E 015°26'612.5
2018-Jun-15 04:30N 38°34' E 015°20'612.4
2018-Jun-15 04:00N 38°39' E 015°15'812.1
2018-Jun-15 03:23N 38°44' E 015°08'423 9.9
2018-Jun-13 08:29N 43°41' E 008°26'510.4
2018-Jun-13 08:00N 43°45' E 008°30'510.5
2018-Jun-13 07:30N 43°49' E 008°35'510.4
2018-Jun-13 07:00N 43°53' E 008°39'510.3
2018-Jun-13 06:30N 43°57' E 008°44'510.4
2018-Jun-13 06:00N 44°01' E 008°49'510.2
2018-Jun-13 05:30N 44°05' E 008°53'5 9.9
2018-Jun-13 05:00N 44°10' E 008°55'612.3
2018-Jun-13 04:30N 44°16' E 008°56'611.7
2018-Jun-13 04:00N 44°22' E 008°57'4 6.9
2018-Jun-13 03:29N 44°24' E 008°54'0 0.0
2018-Jun-13 02:59N 44°24' E 008°54'0 0.0
2018-Jun-13 02:29N 44°24' E 008°54'0 0.0
2018-Jun-13 01:59N 44°24' E 008°54'0 0.0
2018-Jun-13 01:29N 44°24' E 008°54'0 0.0
2018-Jun-13 00:59N 44°24' E 008°54'0 0.0
2018-Jun-13 00:29N 44°24' E 008°54'0 0.0
2018-Jun-12 23:59N 44°24' E 008°54'0 0.0
2018-Jun-12 23:29N 44°24' E 008°54'0 0.0
2018-Jun-12 22:59N 44°24' E 008°54'0 0.0
2018-Jun-12 22:29N 44°24' E 008°54'0 0.0
2018-Jun-12 21:59N 44°24' E 008°54'0 0.0
2018-Jun-12 21:29N 44°24' E 008°54'0 0.0
2018-Jun-12 20:59N 44°24' E 008°54'0 0.0
2018-Jun-12 20:29N 44°24' E 008°54'0 0.0
2018-Jun-12 19:59N 44°24' E 008°54'0 0.0
2018-Jun-12 19:29N 44°24' E 008°54'0 0.0
2018-Jun-12 18:59N 44°24' E 008°54'0 0.0
2018-Jun-12 18:29N 44°24' E 008°54'0 0.0
2018-Jun-12 17:59N 44°24' E 008°54'0 0.0
2018-Jun-12 17:29N 44°24' E 008°54'0 0.0
2018-Jun-12 16:59N 44°24' E 008°54'0 0.0
2018-Jun-12 16:29N 44°24' E 008°54'0 0.0
2018-Jun-12 15:59N 44°24' E 008°54'0 0.0
2018-Jun-12 15:29N 44°24' E 008°54'0 0.0
2018-Jun-12 14:56N 44°24' E 008°54'0 0.0
2018-Jun-12 14:29N 44°24' E 008°54'0 0.0
2018-Jun-12 13:59N 44°24' E 008°54'0 0.0
2018-Jun-12 13:29N 44°24' E 008°54'0 0.0
2018-Jun-12 12:59N 44°24' E 008°54'0 0.0
2018-Jun-12 12:29N 44°24' E 008°54'0 0.0
2018-Jun-12 11:59N 44°24' E 008°54'0 0.0
2018-Jun-12 11:29N 44°24' E 008°54'0 0.0
2018-Jun-12 10:56N 44°24' E 008°54'0 0.0
2018-Jun-12 10:29N 44°24' E 008°54'0 0.0
2018-Jun-12 09:59N 44°24' E 008°54'0 0.0
2018-Jun-12 09:29N 44°24' E 008°54'0 0.0
2018-Jun-12 08:59N 44°24' E 008°54'0 0.0
2018-Jun-12 08:29N 44°24' E 008°54'0 0.0
2018-Jun-12 07:59N 44°24' E 008°54'0 0.0
2018-Jun-12 07:29N 44°24' E 008°54'0 0.0
2018-Jun-12 06:59N 44°24' E 008°54'0 0.0
2018-Jun-12 06:26N 44°24' E 008°54'0 0.0
2018-Jun-12 05:59N 44°24' E 008°54'0 0.0
2018-Jun-12 05:28N 44°24' E 008°54'0 0.1
2018-Jun-12 05:01N 44°24' E 008°54'3 5.2
2018-Jun-12 04:30N 44°23' E 008°57'4 8.5
2018-Jun-12 04:00N 44°19' E 008°57'5 9.7
2018-Jun-12 03:30N 44°15' E 008°52'5 9.8
2018-Jun-12 03:00N 44°12' E 008°48'5 9.7
2018-Jun-12 02:30N 44°08' E 008°43'5 9.7
2018-Jun-12 02:00N 44°05' E 008°38'  
Track history (hours):
 
Tides and Currents Weather Stations Pressure Air Temp Water Temp Dewpoint Dewpoint Depression Visibility Wind Speed Wind Dir Waves Ship Positions

Ievoli Speed

Last reported at 2018-Jun-22 01:30 UTC. Time now 2018-Jun-22 01:55 UTC.
Position N 37°27' E 002°41'.

Length 110 m; draft 5.7 m.

Type: Ship. MMSI: 247351000.

Date/timePositionNaut miles runAvg speedWind from/ knotsBaromVisibWave heightAir tempDewpointWater temp
2018-Jun-22 01:30N 37°27' E 002°41'612.4
2018-Jun-22 01:00N 37°29' E 002°49'612.5
2018-Jun-22 00:30N 37°30' E 002°56'812.4
2018-Jun-21 23:54N 37°32' E 003°06'1512.4
2018-Jun-21 22:43N 37°36' E 003°23'312.5
2018-Jun-21 22:29N 37°37' E 003°27'  
2018-Jun-15 10:41N 37°26' E 015°23'212.4
2018-Jun-15 10:30N 37°28' E 015°24'612.3
2018-Jun-15 09:59N 37°35' E 015°26'712.5
2018-Jun-15 09:27N 37°41' E 015°27'612.9
2018-Jun-15 09:00N 37°47' E 015°29'712.7
2018-Jun-15 08:28N 37°54' E 015°31'613.3
2018-Jun-15 08:00N 37°60' E 015°32'713.0
2018-Jun-15 07:30N 38°06' E 015°34'611.8
2018-Jun-15 07:00N 38°12' E 015°36'710.6
2018-Jun-15 06:23N 38°17' E 015°41'513.1
2018-Jun-15 06:00N 38°21' E 015°37'612.7
2018-Jun-15 05:30N 38°25' E 015°31'612.7
2018-Jun-15 05:00N 38°30' E 015°26'612.5
2018-Jun-15 04:30N 38°34' E 015°20'612.4
2018-Jun-15 04:00N 38°39' E 015°15'812.1
2018-Jun-15 03:23N 38°44' E 015°08'423 9.9
2018-Jun-13 08:29N 43°41' E 008°26'510.4
2018-Jun-13 08:00N 43°45' E 008°30'510.5
2018-Jun-13 07:30N 43°49' E 008°35'510.4
2018-Jun-13 07:00N 43°53' E 008°39'510.3
2018-Jun-13 06:30N 43°57' E 008°44'510.4
2018-Jun-13 06:00N 44°01' E 008°49'510.2
2018-Jun-13 05:30N 44°05' E 008°53'5 9.9
2018-Jun-13 05:00N 44°10' E 008°55'612.3
2018-Jun-13 04:30N 44°16' E 008°56'611.7
2018-Jun-13 04:00N 44°22' E 008°57'4 6.9
2018-Jun-13 03:29N 44°24' E 008°54'0 0.0
2018-Jun-13 02:59N 44°24' E 008°54'0 0.0
2018-Jun-13 02:29N 44°24' E 008°54'0 0.0
2018-Jun-13 01:59N 44°24' E 008°54'0 0.0
2018-Jun-13 01:29N 44°24' E 008°54'0 0.0
2018-Jun-13 00:59N 44°24' E 008°54'0 0.0
2018-Jun-13 00:29N 44°24' E 008°54'0 0.0
2018-Jun-12 23:59N 44°24' E 008°54'0 0.0
2018-Jun-12 23:29N 44°24' E 008°54'0 0.0
2018-Jun-12 22:59N 44°24' E 008°54'0 0.0
2018-Jun-12 22:29N 44°24' E 008°54'0 0.0
2018-Jun-12 21:59N 44°24' E 008°54'0 0.0
2018-Jun-12 21:29N 44°24' E 008°54'0 0.0
2018-Jun-12 20:59N 44°24' E 008°54'0 0.0
2018-Jun-12 20:29N 44°24' E 008°54'0 0.0
2018-Jun-12 19:59N 44°24' E 008°54'0 0.0
2018-Jun-12 19:29N 44°24' E 008°54'0 0.0
2018-Jun-12 18:59N 44°24' E 008°54'0 0.0
2018-Jun-12 18:29N 44°24' E 008°54'0 0.0
2018-Jun-12 17:59N 44°24' E 008°54'0 0.0
2018-Jun-12 17:29N 44°24' E 008°54'0 0.0
2018-Jun-12 16:59N 44°24' E 008°54'0 0.0
2018-Jun-12 16:29N 44°24' E 008°54'0 0.0
2018-Jun-12 15:59N 44°24' E 008°54'0 0.0
2018-Jun-12 15:29N 44°24' E 008°54'0 0.0
2018-Jun-12 14:56N 44°24' E 008°54'0 0.0
2018-Jun-12 14:29N 44°24' E 008°54'0 0.0
2018-Jun-12 13:59N 44°24' E 008°54'0 0.0
2018-Jun-12 13:29N 44°24' E 008°54'0 0.0
2018-Jun-12 12:59N 44°24' E 008°54'0 0.0
2018-Jun-12 12:29N 44°24' E 008°54'0 0.0
2018-Jun-12 11:59N 44°24' E 008°54'0 0.0
2018-Jun-12 11:29N 44°24' E 008°54'0 0.0
2018-Jun-12 10:56N 44°24' E 008°54'0 0.0
2018-Jun-12 10:29N 44°24' E 008°54'0 0.0
2018-Jun-12 09:59N 44°24' E 008°54'0 0.0
2018-Jun-12 09:29N 44°24' E 008°54'0 0.0
2018-Jun-12 08:59N 44°24' E 008°54'0 0.0
2018-Jun-12 08:29N 44°24' E 008°54'0 0.0
2018-Jun-12 07:59N 44°24' E 008°54'0 0.0
2018-Jun-12 07:29N 44°24' E 008°54'0 0.0
2018-Jun-12 06:59N 44°24' E 008°54'0 0.0
2018-Jun-12 06:26N 44°24' E 008°54'0 0.0
2018-Jun-12 05:59N 44°24' E 008°54'0 0.0
2018-Jun-12 05:28N 44°24' E 008°54'0 0.1
2018-Jun-12 05:01N 44°24' E 008°54'3 5.2
2018-Jun-12 04:30N 44°23' E 008°57'4 8.5
2018-Jun-12 04:00N 44°19' E 008°57'5 9.7
2018-Jun-12 03:30N 44°15' E 008°52'5 9.8
2018-Jun-12 03:00N 44°12' E 008°48'5 9.7
2018-Jun-12 02:30N 44°08' E 008°43'5 9.7
2018-Jun-12 02:00N 44°05' E 008°38'  

Dump ship's entire track history